sensor_id;sensor_type;location;lat;lon;timestamp;P1;durP1;ratioP1;P2;durP2;ratioP2
4698;SDS011;33708;49.466;11.176;2023-08-24T00:00:11;9.23;;;5.23;;
4698;SDS011;33708;49.466;11.176;2023-08-24T00:02:37;8.03;;;5.73;;
4698;SDS011;33708;49.466;11.176;2023-08-24T00:05:03;9.47;;;5.63;;
4698;SDS011;33708;49.466;11.176;2023-08-24T00:07:29;9.20;;;5.80;;
4698;SDS011;33708;49.466;11.176;2023-08-24T00:09:55;22.43;;;6.60;;
4698;SDS011;33708;49.466;11.176;2023-08-24T00:12:20;7.77;;;6.03;;
4698;SDS011;33708;49.466;11.176;2023-08-24T00:14:46;8.53;;;5.50;;
4698;SDS011;33708;49.466;11.176;2023-08-24T00:17:12;12.40;;;5.07;;
4698;SDS011;33708;49.466;11.176;2023-08-24T00:19:37;9.23;;;6.00;;
4698;SDS011;33708;49.466;11.176;2023-08-24T00:22:03;13.37;;;5.37;;
4698;SDS011;33708;49.466;11.176;2023-08-24T00:24:29;6.73;;;5.23;;
4698;SDS011;33708;49.466;11.176;2023-08-24T00:26:54;8.50;;;5.60;;
4698;SDS011;33708;49.466;11.176;2023-08-24T00:29:20;10.40;;;6.20;;
4698;SDS011;33708;49.466;11.176;2023-08-24T00:31:46;10.33;;;5.80;;
4698;SDS011;33708;49.466;11.176;2023-08-24T00:34:12;8.43;;;5.50;;
4698;SDS011;33708;49.466;11.176;2023-08-24T00:36:38;10.20;;;5.70;;
4698;SDS011;33708;49.466;11.176;2023-08-24T00:39:03;12.00;;;5.70;;
4698;SDS011;33708;49.466;11.176;2023-08-24T00:41:31;10.20;;;6.07;;
4698;SDS011;33708;49.466;11.176;2023-08-24T00:43:57;7.03;;;5.20;;
4698;SDS011;33708;49.466;11.176;2023-08-24T00:46:22;8.43;;;5.30;;
4698;SDS011;33708;49.466;11.176;2023-08-24T00:48:51;10.27;;;5.20;;
4698;SDS011;33708;49.466;11.176;2023-08-24T00:51:22;20.20;;;5.30;;
4698;SDS011;33708;49.466;11.176;2023-08-24T00:53:49;10.07;;;5.37;;
4698;SDS011;33708;49.466;11.176;2023-08-24T00:56:15;11.70;;;6.20;;
4698;SDS011;33708;49.466;11.176;2023-08-24T00:58:41;12.20;;;5.50;;
4698;SDS011;33708;49.466;11.176;2023-08-24T01:01:07;11.57;;;5.73;;
4698;SDS011;33708;49.466;11.176;2023-08-24T01:03:33;10.30;;;5.93;;
4698;SDS011;33708;49.466;11.176;2023-08-24T01:05:58;11.13;;;5.57;;
4698;SDS011;33708;49.466;11.176;2023-08-24T01:08:24;11.60;;;5.87;;
4698;SDS011;33708;49.466;11.176;2023-08-24T01:16:26;10.93;;;5.43;;
4698;SDS011;33708;49.466;11.176;2023-08-24T01:18:55;9.43;;;5.40;;
4698;SDS011;33708;49.466;11.176;2023-08-24T01:21:22;12.13;;;5.07;;
4698;SDS011;33708;49.466;11.176;2023-08-24T01:23:50;10.70;;;5.20;;
4698;SDS011;33708;49.466;11.176;2023-08-24T01:26:19;9.37;;;5.30;;
4698;SDS011;33708;49.466;11.176;2023-08-24T01:28:46;7.13;;;6.07;;
4698;SDS011;33708;49.466;11.176;2023-08-24T01:31:16;8.97;;;5.00;;
4698;SDS011;33708;49.466;11.176;2023-08-24T01:33:42;11.27;;;5.30;;
4698;SDS011;33708;49.466;11.176;2023-08-24T01:36:09;9.50;;;5.17;;
4698;SDS011;33708;49.466;11.176;2023-08-24T01:38:36;10.00;;;5.33;;
4698;SDS011;33708;49.466;11.176;2023-08-24T01:43:39;9.13;;;5.73;;
4698;SDS011;33708;49.466;11.176;2023-08-24T01:46:07;12.73;;;5.20;;
4698;SDS011;33708;49.466;11.176;2023-08-24T01:48:33;9.10;;;5.50;;
4698;SDS011;33708;49.466;11.176;2023-08-24T01:51:00;6.23;;;5.50;;
4698;SDS011;33708;49.466;11.176;2023-08-24T01:53:27;9.40;;;4.87;;
4698;SDS011;33708;49.466;11.176;2023-08-24T01:55:55;7.60;;;6.03;;
4698;SDS011;33708;49.466;11.176;2023-08-24T01:58:20;11.63;;;5.80;;
4698;SDS011;33708;49.466;11.176;2023-08-24T02:00:46;9.70;;;5.50;;
4698;SDS011;33708;49.466;11.176;2023-08-24T02:03:12;15.13;;;5.87;;
4698;SDS011;33708;49.466;11.176;2023-08-24T02:05:37;9.27;;;5.43;;
4698;SDS011;33708;49.466;11.176;2023-08-24T02:08:03;16.53;;;4.90;;
4698;SDS011;33708;49.466;11.176;2023-08-24T02:10:29;8.87;;;5.57;;
4698;SDS011;33708;49.466;11.176;2023-08-24T02:12:54;6.43;;;5.27;;
4698;SDS011;33708;49.466;11.176;2023-08-24T02:15:20;7.63;;;5.20;;
4698;SDS011;33708;49.466;11.176;2023-08-24T02:17:46;9.00;;;5.33;;
4698;SDS011;33708;49.466;11.176;2023-08-24T02:20:11;13.83;;;5.73;;
4698;SDS011;33708;49.466;11.176;2023-08-24T02:22:37;12.23;;;5.83;;
4698;SDS011;33708;49.466;11.176;2023-08-24T02:25:05;15.20;;;6.40;;
4698;SDS011;33708;49.466;11.176;2023-08-24T02:27:38;9.27;;;6.10;;
4698;SDS011;33708;49.466;11.176;2023-08-24T02:30:07;6.23;;;5.20;;
4698;SDS011;33708;49.466;11.176;2023-08-24T02:32:50;11.70;;;4.90;;
4698;SDS011;33708;49.466;11.176;2023-08-24T02:35:16;13.63;;;5.73;;
4698;SDS011;33708;49.466;11.176;2023-08-24T02:37:43;22.00;;;7.10;;
4698;SDS011;33708;49.466;11.176;2023-08-24T02:40:08;7.10;;;5.77;;
4698;SDS011;33708;49.466;11.176;2023-08-24T02:42:34;7.73;;;5.80;;
4698;SDS011;33708;49.466;11.176;2023-08-24T02:45:00;10.80;;;5.53;;
4698;SDS011;33708;49.466;11.176;2023-08-24T02:47:26;6.60;;;5.70;;
4698;SDS011;33708;49.466;11.176;2023-08-24T02:49:52;11.63;;;5.67;;
4698;SDS011;33708;49.466;11.176;2023-08-24T02:52:17;9.37;;;6.77;;
4698;SDS011;33708;49.466;11.176;2023-08-24T02:54:43;8.90;;;5.67;;
4698;SDS011;33708;49.466;11.176;2023-08-24T02:57:08;15.90;;;5.60;;
4698;SDS011;33708;49.466;11.176;2023-08-24T02:59:34;10.80;;;5.77;;
4698;SDS011;33708;49.466;11.176;2023-08-24T03:02:00;6.50;;;5.53;;
4698;SDS011;33708;49.466;11.176;2023-08-24T03:04:26;7.87;;;5.77;;
4698;SDS011;33708;49.466;11.176;2023-08-24T03:06:52;8.93;;;6.30;;
4698;SDS011;33708;49.466;11.176;2023-08-24T03:09:17;9.67;;;6.00;;
4698;SDS011;33708;49.466;11.176;2023-08-24T03:11:43;9.80;;;6.00;;
4698;SDS011;33708;49.466;11.176;2023-08-24T03:14:09;7.83;;;5.80;;
4698;SDS011;33708;49.466;11.176;2023-08-24T03:16:34;6.60;;;5.27;;
4698;SDS011;33708;49.466;11.176;2023-08-24T03:19:01;10.93;;;5.53;;
4698;SDS011;33708;49.466;11.176;2023-08-24T03:21:27;10.50;;;5.67;;
4698;SDS011;33708;49.466;11.176;2023-08-24T03:23:53;8.20;;;5.77;;
4698;SDS011;33708;49.466;11.176;2023-08-24T03:26:18;14.30;;;6.27;;
4698;SDS011;33708;49.466;11.176;2023-08-24T03:28:45;9.00;;;6.27;;
4698;SDS011;33708;49.466;11.176;2023-08-24T03:31:11;9.77;;;6.50;;
4698;SDS011;33708;49.466;11.176;2023-08-24T03:33:36;12.10;;;5.97;;
4698;SDS011;33708;49.466;11.176;2023-08-24T03:36:02;9.87;;;6.10;;
4698;SDS011;33708;49.466;11.176;2023-08-24T03:38:28;11.10;;;5.70;;
4698;SDS011;33708;49.466;11.176;2023-08-24T03:40:59;11.03;;;6.50;;
4698;SDS011;33708;49.466;11.176;2023-08-24T03:43:32;6.60;;;5.60;;
4698;SDS011;33708;49.466;11.176;2023-08-24T03:45:58;13.57;;;6.23;;
4698;SDS011;33708;49.466;11.176;2023-08-24T03:48:25;6.27;;;5.10;;
4698;SDS011;33708;49.466;11.176;2023-08-24T03:50:53;9.50;;;6.07;;
4698;SDS011;33708;49.466;11.176;2023-08-24T03:53:19;8.50;;;6.07;;
4698;SDS011;33708;49.466;11.176;2023-08-24T03:55:47;9.50;;;5.90;;
4698;SDS011;33708;49.466;11.176;2023-08-24T03:58:13;7.10;;;5.80;;
4698;SDS011;33708;49.466;11.176;2023-08-24T04:00:39;10.50;;;6.10;;
4698;SDS011;33708;49.466;11.176;2023-08-24T04:03:06;12.10;;;7.00;;
4698;SDS011;33708;49.466;11.176;2023-08-24T04:05:32;11.60;;;6.30;;
4698;SDS011;33708;49.466;11.176;2023-08-24T04:07:58;9.20;;;6.87;;
4698;SDS011;33708;49.466;11.176;2023-08-24T04:10:25;7.60;;;5.70;;
4698;SDS011;33708;49.466;11.176;2023-08-24T04:12:52;8.33;;;6.00;;
4698;SDS011;33708;49.466;11.176;2023-08-24T04:15:18;7.30;;;5.77;;
4698;SDS011;33708;49.466;11.176;2023-08-24T04:17:44;10.13;;;5.73;;
4698;SDS011;33708;49.466;11.176;2023-08-24T04:20:09;7.40;;;6.47;;
4698;SDS011;33708;49.466;11.176;2023-08-24T04:22:36;9.83;;;5.90;;
4698;SDS011;33708;49.466;11.176;2023-08-24T04:25:01;13.80;;;6.10;;
4698;SDS011;33708;49.466;11.176;2023-08-24T04:27:27;9.80;;;6.87;;
4698;SDS011;33708;49.466;11.176;2023-08-24T04:29:53;10.70;;;7.30;;
4698;SDS011;33708;49.466;11.176;2023-08-24T04:32:19;9.13;;;5.77;;
4698;SDS011;33708;49.466;11.176;2023-08-24T04:34:44;8.00;;;5.80;;
4698;SDS011;33708;49.466;11.176;2023-08-24T04:37:10;7.83;;;5.80;;
4698;SDS011;33708;49.466;11.176;2023-08-24T04:39:35;7.63;;;5.40;;
4698;SDS011;33708;49.466;11.176;2023-08-24T04:42:02;8.27;;;5.20;;
4698;SDS011;33708;49.466;11.176;2023-08-24T04:44:28;6.63;;;5.13;;
4698;SDS011;33708;49.466;11.176;2023-08-24T04:46:53;13.83;;;5.50;;
4698;SDS011;33708;49.466;11.176;2023-08-24T04:49:19;9.27;;;5.27;;
4698;SDS011;33708;49.466;11.176;2023-08-24T04:51:45;11.50;;;5.27;;
4698;SDS011;33708;49.466;11.176;2023-08-24T04:54:10;9.63;;;5.13;;
4698;SDS011;33708;49.466;11.176;2023-08-24T04:56:36;8.10;;;5.57;;
4698;SDS011;33708;49.466;11.176;2023-08-24T04:59:02;16.53;;;5.83;;
4698;SDS011;33708;49.466;11.176;2023-08-24T05:01:27;7.27;;;5.23;;
4698;SDS011;33708;49.466;11.176;2023-08-24T05:03:55;7.77;;;4.60;;
4698;SDS011;33708;49.466;11.176;2023-08-24T05:06:21;8.70;;;5.47;;
4698;SDS011;33708;49.466;11.176;2023-08-24T05:08:46;14.20;;;4.40;;
4698;SDS011;33708;49.466;11.176;2023-08-24T05:11:12;5.90;;;5.10;;
4698;SDS011;33708;49.466;11.176;2023-08-24T05:13:42;8.77;;;4.60;;
4698;SDS011;33708;49.466;11.176;2023-08-24T05:16:09;9.13;;;5.10;;
4698;SDS011;33708;49.466;11.176;2023-08-24T05:18:35;9.20;;;4.10;;
4698;SDS011;33708;49.466;11.176;2023-08-24T05:21:03;9.20;;;4.40;;
4698;SDS011;33708;49.466;11.176;2023-08-24T05:23:30;5.67;;;4.37;;
4698;SDS011;33708;49.466;11.176;2023-08-24T05:25:57;5.70;;;4.10;;
4698;SDS011;33708;49.466;11.176;2023-08-24T05:28:27;6.67;;;3.77;;
4698;SDS011;33708;49.466;11.176;2023-08-24T05:30:53;6.53;;;4.23;;
4698;SDS011;33708;49.466;11.176;2023-08-24T05:33:20;5.80;;;4.20;;
4698;SDS011;33708;49.466;11.176;2023-08-24T05:35:46;11.07;;;3.97;;
4698;SDS011;33708;49.466;11.176;2023-08-24T05:38:13;7.70;;;3.67;;
4698;SDS011;33708;49.466;11.176;2023-08-24T05:40:39;7.70;;;3.70;;
4698;SDS011;33708;49.466;11.176;2023-08-24T05:43:04;5.33;;;3.90;;
4698;SDS011;33708;49.466;11.176;2023-08-24T05:45:30;7.50;;;3.63;;
4698;SDS011;33708;49.466;11.176;2023-08-24T05:47:56;7.77;;;3.67;;
4698;SDS011;33708;49.466;11.176;2023-08-24T05:50:22;8.00;;;3.60;;
4698;SDS011;33708;49.466;11.176;2023-08-24T05:52:47;5.57;;;3.67;;
4698;SDS011;33708;49.466;11.176;2023-08-24T05:55:13;9.10;;;3.97;;
4698;SDS011;33708;49.466;11.176;2023-08-24T05:57:38;9.97;;;4.70;;
4698;SDS011;33708;49.466;11.176;2023-08-24T06:00:04;6.77;;;3.53;;
4698;SDS011;33708;49.466;11.176;2023-08-24T06:02:35;6.87;;;3.40;;
4698;SDS011;33708;49.466;11.176;2023-08-24T06:05:01;10.17;;;4.43;;
4698;SDS011;33708;49.466;11.176;2023-08-24T06:07:28;7.60;;;3.10;;
4698;SDS011;33708;49.466;11.176;2023-08-24T06:09:54;4.60;;;3.03;;
4698;SDS011;33708;49.466;11.176;2023-08-24T06:12:21;8.90;;;3.20;;
4698;SDS011;33708;49.466;11.176;2023-08-24T06:14:46;9.13;;;4.10;;
4698;SDS011;33708;49.466;11.176;2023-08-24T06:17:12;10.77;;;4.40;;
4698;SDS011;33708;49.466;11.176;2023-08-24T06:19:37;7.87;;;4.03;;
4698;SDS011;33708;49.466;11.176;2023-08-24T06:22:03;7.80;;;4.00;;
4698;SDS011;33708;49.466;11.176;2023-08-24T06:24:29;13.77;;;4.27;;
4698;SDS011;33708;49.466;11.176;2023-08-24T06:26:54;9.67;;;4.00;;
4698;SDS011;33708;49.466;11.176;2023-08-24T06:29:20;9.43;;;4.17;;
4698;SDS011;33708;49.466;11.176;2023-08-24T06:31:45;13.27;;;4.90;;
4698;SDS011;33708;49.466;11.176;2023-08-24T06:34:11;11.40;;;4.30;;
4698;SDS011;33708;49.466;11.176;2023-08-24T06:36:36;8.63;;;4.10;;
4698;SDS011;33708;49.466;11.176;2023-08-24T06:39:02;16.90;;;4.40;;
4698;SDS011;33708;49.466;11.176;2023-08-24T06:41:32;10.77;;;3.73;;
4698;SDS011;33708;49.466;11.176;2023-08-24T06:43:59;11.53;;;3.90;;
4698;SDS011;33708;49.466;11.176;2023-08-24T06:46:24;10.43;;;3.50;;
4698;SDS011;33708;49.466;11.176;2023-08-24T06:48:50;18.10;;;4.27;;
4698;SDS011;33708;49.466;11.176;2023-08-24T06:51:16;18.17;;;4.43;;
4698;SDS011;33708;49.466;11.176;2023-08-24T06:53:41;9.90;;;3.93;;
4698;SDS011;33708;49.466;11.176;2023-08-24T06:56:07;15.53;;;3.60;;
4698;SDS011;33708;49.466;11.176;2023-08-24T06:58:34;20.87;;;4.30;;
4698;SDS011;33708;49.466;11.176;2023-08-24T07:00:59;15.40;;;4.50;;
4698;SDS011;33708;49.466;11.176;2023-08-24T07:03:25;9.73;;;3.60;;
4698;SDS011;33708;49.466;11.176;2023-08-24T07:05:51;14.00;;;4.10;;
4698;SDS011;33708;49.466;11.176;2023-08-24T07:08:17;8.70;;;3.30;;
4698;SDS011;33708;49.466;11.176;2023-08-24T07:10:43;14.27;;;4.23;;
4698;SDS011;33708;49.466;11.176;2023-08-24T07:13:09;12.93;;;4.00;;
4698;SDS011;33708;49.466;11.176;2023-08-24T07:15:35;6.97;;;3.93;;
4698;SDS011;33708;49.466;11.176;2023-08-24T07:18:01;7.37;;;4.10;;
4698;SDS011;33708;49.466;11.176;2023-08-24T07:20:27;6.80;;;3.53;;
4698;SDS011;33708;49.466;11.176;2023-08-24T07:22:53;18.70;;;3.90;;
4698;SDS011;33708;49.466;11.176;2023-08-24T07:25:19;9.57;;;3.70;;
4698;SDS011;33708;49.466;11.176;2023-08-24T07:27:46;8.43;;;3.50;;
4698;SDS011;33708;49.466;11.176;2023-08-24T07:30:12;8.50;;;3.47;;
4698;SDS011;33708;49.466;11.176;2023-08-24T07:32:38;6.70;;;3.37;;
4698;SDS011;33708;49.466;11.176;2023-08-24T07:35:04;9.67;;;3.77;;
4698;SDS011;33708;49.466;11.176;2023-08-24T07:37:31;8.50;;;3.70;;
4698;SDS011;33708;49.466;11.176;2023-08-24T07:39:57;8.10;;;2.97;;
4698;SDS011;33708;49.466;11.176;2023-08-24T07:42:22;7.23;;;3.27;;
4698;SDS011;33708;49.466;11.176;2023-08-24T07:44:48;6.77;;;3.20;;
4698;SDS011;33708;49.466;11.176;2023-08-24T07:47:14;7.70;;;3.60;;
4698;SDS011;33708;49.466;11.176;2023-08-24T07:49:40;12.03;;;3.20;;
4698;SDS011;33708;49.466;11.176;2023-08-24T07:52:09;14.13;;;3.40;;
4698;SDS011;33708;49.466;11.176;2023-08-24T07:54:36;4.10;;;3.03;;
4698;SDS011;33708;49.466;11.176;2023-08-24T07:57:01;6.13;;;3.07;;
4698;SDS011;33708;49.466;11.176;2023-08-24T07:59:27;13.57;;;3.07;;
4698;SDS011;33708;49.466;11.176;2023-08-24T08:01:52;6.87;;;2.83;;
4698;SDS011;33708;49.466;11.176;2023-08-24T08:04:18;7.50;;;3.17;;
4698;SDS011;33708;49.466;11.176;2023-08-24T08:06:44;12.83;;;3.60;;
4698;SDS011;33708;49.466;11.176;2023-08-24T08:09:09;9.73;;;3.20;;
4698;SDS011;33708;49.466;11.176;2023-08-24T08:11:35;7.30;;;3.00;;
4698;SDS011;33708;49.466;11.176;2023-08-24T08:14:01;5.00;;;2.70;;
4698;SDS011;33708;49.466;11.176;2023-08-24T08:16:26;12.77;;;2.90;;
4698;SDS011;33708;49.466;11.176;2023-08-24T08:18:52;8.03;;;3.40;;
4698;SDS011;33708;49.466;11.176;2023-08-24T08:21:17;6.07;;;3.00;;
4698;SDS011;33708;49.466;11.176;2023-08-24T08:23:44;6.93;;;2.60;;
4698;SDS011;33708;49.466;11.176;2023-08-24T08:26:10;6.00;;;2.70;;
4698;SDS011;33708;49.466;11.176;2023-08-24T08:28:37;9.00;;;2.80;;
4698;SDS011;33708;49.466;11.176;2023-08-24T08:31:02;8.90;;;2.87;;
4698;SDS011;33708;49.466;11.176;2023-08-24T08:33:28;4.43;;;2.80;;
4698;SDS011;33708;49.466;11.176;2023-08-24T08:35:54;4.70;;;2.87;;
4698;SDS011;33708;49.466;11.176;2023-08-24T08:38:21;5.70;;;2.70;;
4698;SDS011;33708;49.466;11.176;2023-08-24T08:40:50;6.30;;;2.87;;
4698;SDS011;33708;49.466;11.176;2023-08-24T08:43:18;6.90;;;2.97;;
4698;SDS011;33708;49.466;11.176;2023-08-24T08:45:46;9.90;;;2.80;;
4698;SDS011;33708;49.466;11.176;2023-08-24T08:48:14;25.23;;;4.37;;
4698;SDS011;33708;49.466;11.176;2023-08-24T08:50:39;6.97;;;2.80;;
4698;SDS011;33708;49.466;11.176;2023-08-24T08:53:05;8.10;;;2.80;;
4698;SDS011;33708;49.466;11.176;2023-08-24T08:55:30;15.50;;;3.30;;
4698;SDS011;33708;49.466;11.176;2023-08-24T08:57:56;6.33;;;2.67;;
4698;SDS011;33708;49.466;11.176;2023-08-24T09:00:23;5.97;;;2.97;;
4698;SDS011;33708;49.466;11.176;2023-08-24T09:02:49;6.80;;;2.47;;
4698;SDS011;33708;49.466;11.176;2023-08-24T09:05:18;7.33;;;3.40;;
4698;SDS011;33708;49.466;11.176;2023-08-24T09:07:45;7.10;;;3.27;;
4698;SDS011;33708;49.466;11.176;2023-08-24T09:10:12;9.10;;;2.63;;
4698;SDS011;33708;49.466;11.176;2023-08-24T09:12:38;12.17;;;3.67;;
4698;SDS011;33708;49.466;11.176;2023-08-24T09:15:04;9.40;;;3.00;;
4698;SDS011;33708;49.466;11.176;2023-08-24T09:17:31;8.90;;;3.20;;
4698;SDS011;33708;49.466;11.176;2023-08-24T09:19:58;7.97;;;2.73;;
4698;SDS011;33708;49.466;11.176;2023-08-24T09:22:25;12.30;;;3.40;;
4698;SDS011;33708;49.466;11.176;2023-08-24T09:24:51;4.23;;;2.67;;
4698;SDS011;33708;49.466;11.176;2023-08-24T09:27:17;10.70;;;3.03;;
4698;SDS011;33708;49.466;11.176;2023-08-24T09:29:50;7.37;;;3.30;;
4698;SDS011;33708;49.466;11.176;2023-08-24T09:32:23;6.27;;;3.23;;
4698;SDS011;33708;49.466;11.176;2023-08-24T09:34:50;9.03;;;2.63;;
4698;SDS011;33708;49.466;11.176;2023-08-24T09:37:16;8.10;;;3.00;;
4698;SDS011;33708;49.466;11.176;2023-08-24T09:39:42;19.87;;;3.33;;
4698;SDS011;33708;49.466;11.176;2023-08-24T09:42:09;6.60;;;2.67;;
4698;SDS011;33708;49.466;11.176;2023-08-24T09:44:34;11.73;;;2.67;;
4698;SDS011;33708;49.466;11.176;2023-08-24T09:47:00;18.67;;;3.00;;
4698;SDS011;33708;49.466;11.176;2023-08-24T09:49:26;7.10;;;3.20;;
4698;SDS011;33708;49.466;11.176;2023-08-24T09:51:56;6.40;;;2.97;;
4698;SDS011;33708;49.466;11.176;2023-08-24T09:54:24;5.10;;;2.87;;
4698;SDS011;33708;49.466;11.176;2023-08-24T09:56:52;8.93;;;3.67;;
4698;SDS011;33708;49.466;11.176;2023-08-24T09:59:20;13.40;;;3.27;;
4698;SDS011;33708;49.466;11.176;2023-08-24T10:01:49;6.67;;;3.60;;
4698;SDS011;33708;49.466;11.176;2023-08-24T10:04:21;6.93;;;2.70;;
4698;SDS011;33708;49.466;11.176;2023-08-24T10:06:58;14.30;;;3.33;;
4698;SDS011;33708;49.466;11.176;2023-08-24T10:09:38;5.80;;;3.30;;
4698;SDS011;33708;49.466;11.176;2023-08-24T10:12:11;5.73;;;3.17;;
4698;SDS011;33708;49.466;11.176;2023-08-24T10:14:47;11.73;;;3.07;;
4698;SDS011;33708;49.466;11.176;2023-08-24T10:17:32;12.63;;;3.67;;
4698;SDS011;33708;49.466;11.176;2023-08-24T10:20:01;7.10;;;3.13;;
4698;SDS011;33708;49.466;11.176;2023-08-24T10:22:30;12.43;;;2.90;;
4698;SDS011;33708;49.466;11.176;2023-08-24T10:24:56;9.00;;;3.40;;
4698;SDS011;33708;49.466;11.176;2023-08-24T10:27:22;13.57;;;2.67;;
4698;SDS011;33708;49.466;11.176;2023-08-24T10:29:49;8.40;;;3.03;;
4698;SDS011;33708;49.466;11.176;2023-08-24T10:32:14;13.93;;;3.63;;
4698;SDS011;33708;49.466;11.176;2023-08-24T10:34:42;6.60;;;2.60;;
4698;SDS011;33708;49.466;11.176;2023-08-24T10:37:11;12.33;;;3.63;;
4698;SDS011;33708;49.466;11.176;2023-08-24T10:39:46;5.60;;;3.20;;
4698;SDS011;33708;49.466;11.176;2023-08-24T10:42:12;10.03;;;3.23;;
4698;SDS011;33708;49.466;11.176;2023-08-24T10:44:39;10.40;;;3.70;;
4698;SDS011;33708;49.466;11.176;2023-08-24T10:49:38;5.97;;;3.30;;
4698;SDS011;33708;49.466;11.176;2023-08-24T10:54:49;7.50;;;3.00;;
4698;SDS011;33708;49.466;11.176;2023-08-24T10:57:20;9.80;;;3.40;;
4698;SDS011;33708;49.466;11.176;2023-08-24T11:05:14;5.60;;;2.80;;
4698;SDS011;33708;49.466;11.176;2023-08-24T11:08:11;8.53;;;3.17;;
4698;SDS011;33708;49.466;11.176;2023-08-24T11:13:15;7.23;;;3.50;;
4698;SDS011;33708;49.466;11.176;2023-08-24T11:18:26;7.20;;;3.60;;
4698;SDS011;33708;49.466;11.176;2023-08-24T11:20:53;9.40;;;3.90;;
4698;SDS011;33708;49.466;11.176;2023-08-24T11:23:20;7.70;;;3.23;;
4698;SDS011;33708;49.466;11.176;2023-08-24T11:25:47;12.50;;;3.73;;
4698;SDS011;33708;49.466;11.176;2023-08-24T11:28:18;8.87;;;3.40;;
4698;SDS011;33708;49.466;11.176;2023-08-24T11:30:45;6.67;;;3.57;;
4698;SDS011;33708;49.466;11.176;2023-08-24T11:33:11;6.40;;;3.27;;
4698;SDS011;33708;49.466;11.176;2023-08-24T11:35:42;8.33;;;3.20;;
4698;SDS011;33708;49.466;11.176;2023-08-24T11:38:09;9.90;;;3.60;;
4698;SDS011;33708;49.466;11.176;2023-08-24T11:40:35;8.40;;;3.27;;
4698;SDS011;33708;49.466;11.176;2023-08-24T11:43:02;9.97;;;3.23;;
4698;SDS011;33708;49.466;11.176;2023-08-24T11:45:32;8.43;;;3.23;;
4698;SDS011;33708;49.466;11.176;2023-08-24T11:48:00;10.93;;;3.33;;
4698;SDS011;33708;49.466;11.176;2023-08-24T11:50:26;5.67;;;3.47;;
4698;SDS011;33708;49.466;11.176;2023-08-24T11:52:53;6.37;;;2.77;;
4698;SDS011;33708;49.466;11.176;2023-08-24T11:55:20;11.10;;;3.63;;
4698;SDS011;33708;49.466;11.176;2023-08-24T11:57:46;11.73;;;3.50;;
4698;SDS011;33708;49.466;11.176;2023-08-24T12:00:12;10.50;;;3.10;;
4698;SDS011;33708;49.466;11.176;2023-08-24T12:02:39;7.83;;;3.27;;
4698;SDS011;33708;49.466;11.176;2023-08-24T12:05:06;14.13;;;3.30;;
4698;SDS011;33708;49.466;11.176;2023-08-24T12:07:32;8.53;;;3.30;;
4698;SDS011;33708;49.466;11.176;2023-08-24T12:10:01;9.03;;;3.40;;
4698;SDS011;33708;49.466;11.176;2023-08-24T12:12:27;10.90;;;3.40;;
4698;SDS011;33708;49.466;11.176;2023-08-24T12:14:54;15.07;;;3.63;;
4698;SDS011;33708;49.466;11.176;2023-08-24T12:17:22;7.77;;;3.43;;
4698;SDS011;33708;49.466;11.176;2023-08-24T12:19:58;6.37;;;3.40;;
4698;SDS011;33708;49.466;11.176;2023-08-24T12:22:31;7.10;;;3.73;;
4698;SDS011;33708;49.466;11.176;2023-08-24T12:24:57;10.33;;;3.40;;
4698;SDS011;33708;49.466;11.176;2023-08-24T12:27:23;9.13;;;3.63;;
4698;SDS011;33708;49.466;11.176;2023-08-24T12:29:51;7.17;;;3.33;;
4698;SDS011;33708;49.466;11.176;2023-08-24T12:32:17;6.53;;;3.60;;
4698;SDS011;33708;49.466;11.176;2023-08-24T12:34:50;7.33;;;3.20;;
4698;SDS011;33708;49.466;11.176;2023-08-24T12:37:16;9.20;;;3.23;;
4698;SDS011;33708;49.466;11.176;2023-08-24T12:39:42;10.60;;;3.60;;
4698;SDS011;33708;49.466;11.176;2023-08-24T12:42:08;8.53;;;3.60;;
4698;SDS011;33708;49.466;11.176;2023-08-24T12:44:33;6.13;;;3.60;;
4698;SDS011;33708;49.466;11.176;2023-08-24T12:47:00;6.23;;;3.30;;
4698;SDS011;33708;49.466;11.176;2023-08-24T12:49:27;10.50;;;3.40;;
4698;SDS011;33708;49.466;11.176;2023-08-24T12:51:53;6.67;;;2.67;;
4698;SDS011;33708;49.466;11.176;2023-08-24T12:54:19;9.80;;;3.20;;
4698;SDS011;33708;49.466;11.176;2023-08-24T12:56:44;7.70;;;3.07;;
4698;SDS011;33708;49.466;11.176;2023-08-24T12:59:10;8.43;;;3.60;;
4698;SDS011;33708;49.466;11.176;2023-08-24T13:01:36;8.23;;;3.00;;
4698;SDS011;33708;49.466;11.176;2023-08-24T13:04:03;6.00;;;3.20;;
4698;SDS011;33708;49.466;11.176;2023-08-24T13:06:29;13.17;;;3.70;;
4698;SDS011;33708;49.466;11.176;2023-08-24T13:08:55;5.57;;;3.40;;
4698;SDS011;33708;49.466;11.176;2023-08-24T13:11:21;8.30;;;3.60;;
4698;SDS011;33708;49.466;11.176;2023-08-24T13:13:47;6.43;;;3.10;;
4698;SDS011;33708;49.466;11.176;2023-08-24T13:16:12;8.30;;;3.57;;
4698;SDS011;33708;49.466;11.176;2023-08-24T13:18:38;6.93;;;3.50;;
4698;SDS011;33708;49.466;11.176;2023-08-24T13:21:04;11.60;;;3.67;;
4698;SDS011;33708;49.466;11.176;2023-08-24T13:23:29;9.30;;;4.07;;
4698;SDS011;33708;49.466;11.176;2023-08-24T13:25:57;14.13;;;4.23;;
4698;SDS011;33708;49.466;11.176;2023-08-24T13:28:23;9.53;;;4.10;;
4698;SDS011;33708;49.466;11.176;2023-08-24T13:30:48;9.17;;;3.03;;
4698;SDS011;33708;49.466;11.176;2023-08-24T13:33:14;19.40;;;3.60;;
4698;SDS011;33708;49.466;11.176;2023-08-24T13:35:40;8.43;;;3.80;;
4698;SDS011;33708;49.466;11.176;2023-08-24T13:38:06;11.10;;;3.77;;
4698;SDS011;33708;49.466;11.176;2023-08-24T13:40:31;10.70;;;3.63;;
4698;SDS011;33708;49.466;11.176;2023-08-24T13:42:57;5.17;;;3.27;;
4698;SDS011;33708;49.466;11.176;2023-08-24T13:45:23;6.50;;;3.53;;
4698;SDS011;33708;49.466;11.176;2023-08-24T13:47:48;15.30;;;3.70;;
4698;SDS011;33708;49.466;11.176;2023-08-24T13:50:14;10.47;;;3.73;;
4698;SDS011;33708;49.466;11.176;2023-08-24T13:52:39;9.07;;;3.10;;
4698;SDS011;33708;49.466;11.176;2023-08-24T13:55:05;10.97;;;3.80;;
4698;SDS011;33708;49.466;11.176;2023-08-24T13:57:31;12.77;;;3.90;;
4698;SDS011;33708;49.466;11.176;2023-08-24T13:59:57;9.93;;;4.10;;
4698;SDS011;33708;49.466;11.176;2023-08-24T14:02:22;9.90;;;4.00;;
4698;SDS011;33708;49.466;11.176;2023-08-24T14:04:48;6.90;;;3.33;;
4698;SDS011;33708;49.466;11.176;2023-08-24T14:07:13;9.27;;;4.00;;
4698;SDS011;33708;49.466;11.176;2023-08-24T14:09:39;6.93;;;3.50;;
4698;SDS011;33708;49.466;11.176;2023-08-24T14:12:05;8.83;;;3.60;;
4698;SDS011;33708;49.466;11.176;2023-08-24T14:14:30;7.77;;;3.63;;
4698;SDS011;33708;49.466;11.176;2023-08-24T14:16:57;6.50;;;3.30;;
4698;SDS011;33708;49.466;11.176;2023-08-24T14:19:23;9.47;;;3.70;;
4698;SDS011;33708;49.466;11.176;2023-08-24T14:21:49;13.20;;;3.50;;
4698;SDS011;33708;49.466;11.176;2023-08-24T14:24:14;14.63;;;3.80;;
4698;SDS011;33708;49.466;11.176;2023-08-24T14:26:40;9.03;;;3.70;;
4698;SDS011;33708;49.466;11.176;2023-08-24T14:29:10;9.80;;;3.77;;
4698;SDS011;33708;49.466;11.176;2023-08-24T14:31:36;10.47;;;3.53;;
4698;SDS011;33708;49.466;11.176;2023-08-24T14:34:02;10.60;;;3.30;;
4698;SDS011;33708;49.466;11.176;2023-08-24T14:36:28;6.10;;;3.60;;
4698;SDS011;33708;49.466;11.176;2023-08-24T14:38:54;6.27;;;3.10;;
4698;SDS011;33708;49.466;11.176;2023-08-24T14:41:19;12.70;;;4.03;;
4698;SDS011;33708;49.466;11.176;2023-08-24T14:43:45;13.17;;;3.83;;
4698;SDS011;33708;49.466;11.176;2023-08-24T14:46:11;7.67;;;3.50;;
4698;SDS011;33708;49.466;11.176;2023-08-24T14:48:37;10.80;;;3.87;;
4698;SDS011;33708;49.466;11.176;2023-08-24T14:51:02;6.30;;;4.27;;
4698;SDS011;33708;49.466;11.176;2023-08-24T14:53:28;11.00;;;3.70;;
4698;SDS011;33708;49.466;11.176;2023-08-24T14:55:54;8.33;;;3.73;;
4698;SDS011;33708;49.466;11.176;2023-08-24T14:58:21;7.53;;;3.30;;
4698;SDS011;33708;49.466;11.176;2023-08-24T15:00:47;12.07;;;3.77;;
4698;SDS011;33708;49.466;11.176;2023-08-24T15:03:14;12.37;;;3.40;;